Location Sebastian, FL, US

ob KFLSEBAS1 222125Z AUTO 11009G13KT  HZ 26/22 A3006 RMK SLPNO 

2018.04.22 2125 UTC
Wind from the ESE (109 degrees) at 10.0 MPH (9 KT) gusting to 15.0 MPH (13 KT)
Visibility    Mile(s)
Weather: HAZE
Temperature 79.50 F (26 C)
Dew Point 71.66 F (22 C)
Relative Humidity 77%
Pressure   30.06 in. Hg (1018 hPa)
Rain  0.00 in.
Daily Rain  in.

Station Name  Memory Makers, Inc.
Longitude, Latitude  -80.48, 27.8
Elevation 23
Station URL www.kflsebas1.com
Software Type VWS V15.00